Airfield :
LOGIN :

Register | Disclaimer

   EN    FR    IT 

 










Legend :    VFR   Marginal VFR   IFR   Intensive IFR   Very Intensive IFR
Visi :
Ceiling :
>= 8 km
>= 3000ft
5 to 8 km
1000 to 3000 ft
1500m to 5 km
500 to 1000 ft
800 to 1500m
200 to 500 ft
< 800m
< 200 ft
Symbols :   Thunderstorms  Fog  Heavy snow  Heavy precipitations  Wind > 20 kt
SIGMETs :     Misc.  Thunderstorms  Icing  Turbulence  Mountain Waves  Volcanic Ashes







- Airport Elevation : 614 ft
- IATA code : CRL


EBCI - Charleroi

CURRENT METAR :
  • 181350Z 07012KT 040V110 CAVOK 21/00 Q1022 NOSIG

EXPIRED METARs :
  • 181320Z 07015KT CAVOK 21/01 Q1022 NOSIG
  • 181250Z 09012KT 060V130 CAVOK 21/01 Q1022 NOSIG
  • 181220Z 09010KT 060V120 CAVOK 21/01 Q1022 NOSIG
  • 181150Z 09012KT 060V130 CAVOK 20/01 Q1022 NOSIG
  • 181120Z 09011KT 070V130 CAVOK 20/M00 Q1022 NOSIG

TAF TAF EBCI
Valid from the 18 at 12:00 until the 19 at 18:00 UTC


181100Z 1812/1918 09010KT CAVOK
No reported NOTAMs for that airfield.



MET'MAP, your aeronautical weather chart ! - Copyright ORBIFLY December 2007 - Disclaimer

ORBIFLY MET'MAP TEAM :

Programming & Development : Alexandra Zaïnal
Concept & Development : Baudouin d'Aumeries
Co-Development & Prog : Marc-Olivier Méhu
Technical & hardware support : Manuel Goepfert

Contact : metmap@orbifly.com




SOURCES & CREDITS :

   NOAA